• Join FlightAware (Why Join?)
  • Login
  • US Flag 
03:56AM EDT


 

Airport Tracker/Info


-or-


 

Live Flight TrackerFlight Track Log ✈ SWA378 ✈ 01-Jul-2013 ✈ KSJC - KONT

Flight Track Log - Related Links

Times and Time Zones

All times are in EDT time to prevent confusion due to time zone crossing. See the SWA378 flight status page for this flight to view local times or setup timezone preferences in your user account.

Time Position Orientation Groundspeed Altitude Reporting Facility
EDT Latitude Longitude Course Direction KTS MPH feet Rate Location/Type
11:08AM 37.3833 -121.9500 322° Northwest 171 197 800  Level Northern Cal TRACON
11:09AM 37.4167 -121.9833 322° Northwest 208 239 2,700 2,160 Climbing Northern Cal TRACON
11:10AM 37.4333 -121.9167 73° East 239 275 5,000 2,040 Climbing Northern Cal TRACON
11:11AM 37.4000 -121.8667 130° Southeast 247 284 6,800 2,400 Climbing Northern Cal TRACON
11:12AM 37.3608 -121.8253 140° Southeast 244 281 9,200 2,400 Climbing Oakland Center
11:13AM 37.3058 -121.7653 139° Southeast 257 296 11,000 1,860 Climbing Oakland Center
11:14AM 37.2336 -121.6839 138° Southeast 329 379 13,100 2,340 Climbing Oakland Center
11:15AM 37.1589 -121.6003 138° Southeast 354 407 15,900 2,820 Climbing Oakland Center
11:16AM 37.0753 -121.5072 138° Southeast 376 433 18,900 2,700 Climbing Oakland Center
11:17AM 37.0003 -121.4286 140° Southeast 375 432 21,400 2,400 Climbing Oakland Center
11:18AM 36.9028 -121.3219 139° Southeast 385 443 23,800 2,040 Climbing Oakland Center
11:19AM 36.8172 -121.2289 139° Southeast 403 464 25,600 1,560 Climbing Oakland Center
11:20AM 36.7431 -121.1469 138° Southeast 412 474 27,000 1,800 Climbing Oakland Center
11:21AM 36.6400 -121.0253 137° Southeast 422 486 29,300 2,160 Climbing Oakland Center
11:22AM 36.5669 -120.9106 128° Southeast 421 484 31,400 2,160 Climbing Oakland Center
11:23AM 36.4950 -120.7975 128° Southeast 419 482 33,800 1,980 Climbing Oakland Center
11:24AM 36.4242 -120.6897 129° Southeast 406 467 35,500 1,380 Climbing Oakland Center
11:25AM 36.3525 -120.5814 129° Southeast 405 466 36,700 720 Climbing Oakland Center
11:26AM 36.2792 -120.4686 129° Southeast 415 478 37,000 120 Climbing Oakland Center
11:27AM 36.2061 -120.3581 129° Southeast 415 478 37,000  Level Oakland Center
11:28AM 36.1319 -120.2464 129° Southeast 417 480 37,000  Level Oakland Center
11:29AM 36.0586 -120.1356 129° Southeast 417 480 37,000  Level Oakland Center
11:30AM 35.9842 -120.0244 130° Southeast 417 480 37,000  Level Oakland Center
11:31AM 35.8958 -119.8914 129° Southeast 417 480 37,000  Level Oakland Center
11:32AM 35.8214 -119.7817 130° Southeast 415 478 37,000  Level Oakland Center
11:33AM 35.7469 -119.6725 130° Southeast 415 478 37,000  Level Oakland Center
11:34AM 35.6722 -119.5614 130° Southeast 417 480 37,000  Level Oakland Center
11:35AM 35.5969 -119.4514 130° Southeast 419 482 37,000  Level Oakland Center
11:36AM 35.5233 -119.3422 130° Southeast 417 480 37,000  Level Oakland Center
11:37AM 35.4475 -119.2306 130° Southeast 420 483 37,000  Level Oakland Center
11:38AM 35.3711 -119.1217 131° Southeast 421 484 37,000  Level Oakland Center
11:39AM 35.2950 -119.0108 130° Southeast 422 486 37,000  Level Oakland Center
11:40AM 35.2192 -118.8997 130° Southeast 424 488 37,000  Level Oakland Center
11:41AM 35.1272 -118.7669 130° Southeast 426 490 37,000 -420 Level Oakland Center
11:42AM 35.0497 -118.6581 131° Southeast 426 490 36,200 -2,100 Descending Oakland Center
11:43AM 34.9736 -118.5469 130° Southeast 426 490 32,700 -2,640 Descending Oakland Center
11:45AM 34.8661 -118.3978 131° Southeast 423 487 29,900 -1,680 Descending Los Angeles Center
11:46AM 34.7950 -118.2961 130° Southeast 406 467 28,700 -1,920 Descending Los Angeles Center
11:47AM 34.7225 -118.1936 131° Southeast 404 465 26,000 -2,640 Descending Los Angeles Center
11:48AM 34.6444 -118.0842 131° Southeast 393 452 23,300 -1,680 Descending Los Angeles Center
11:49AM 34.5850 -117.9667 122° Southeast 375 432 22,200 -1,500 Descending Los Angeles Center
11:50AM 34.5253 -117.8333 119° Southeast 378 435 20,000 -2,400 Descending Los Angeles Center
11:51AM 34.4758 -117.7269 119° Southeast 364 419 17,300 -2,400 Descending Los Angeles Center
11:52AM 34.4272 -117.6214 119° Southeast 361 415 15,100 -1,800 Descending Los Angeles Center
11:53AM 34.3792 -117.5144 119° Southeast 321 369 13,600 -1,020 Descending Los Angeles Center
11:54AM 34.3400 -117.4281 119° Southeast 299 344 13,000 -1,560 Descending Los Angeles Center
11:55AM 34.2794 -117.3906 153° Southeast 269 310 10,400 -2,820 Descending Los Angeles Center
11:56AM 34.2050 -117.4075 191° South 272 313 7,200 -2,820 Descending Los Angeles Center
11:57AM 34.1372 -117.4444 204° Southwest 270 311 4,600 -1,980 Descending Los Angeles Center
11:58AM 34.0764 -117.4831 208° Southwest 233 268 3,200 -1,440 Descending Los Angeles Center
11:59AM 34.0500 -117.5333 238° Southwest 160 184 1,900 -1,080 Descending Southern California TRACON
12:00PM 34.0500 -117.5667 270° West 135 155 1,200 -720 Descending Southern California TRACON
12:03PM 34.0500 -117.6000 270° West  Level FlightAware Approximate
12:10PM 34.0560 -117.6012 270° West  Level Estimated
12:11PM 34.0500 -117.6000 270° West  Level FlightAware Approximate
12:12PM 34.0560 -117.6012 270° West  Level Estimated